createdAt,value
2017-11-27T00:00:30.637Z,3.57
2017-11-27T00:01:39.477Z,3.55
2017-11-27T00:02:48.316Z,3.52
2017-11-27T00:03:57.160Z,3.48
2017-11-27T00:05:06.000Z,3.54
2017-11-27T00:06:14.842Z,3.66
2017-11-27T00:07:23.968Z,3.62
2017-11-27T00:08:32.810Z,3.61
2017-11-27T00:09:41.650Z,3.54
2017-11-27T00:10:50.488Z,3.52
2017-11-27T00:11:59.912Z,3.73
2017-11-27T00:13:08.752Z,3.54
2017-11-27T00:14:17.882Z,3.69
2017-11-27T00:15:27.015Z,3.75
2017-11-27T00:16:35.855Z,3.69
2017-11-27T00:17:44.993Z,3.7
2017-11-27T00:18:53.831Z,3.69
2017-11-27T00:20:02.675Z,3.69
2017-11-27T00:21:11.514Z,3.69
2017-11-27T00:22:20.355Z,3.62
2017-11-27T00:23:29.525Z,3.51
2017-11-27T00:24:38.368Z,3.65
2017-11-27T00:25:47.211Z,3.62
2017-11-27T00:26:56.328Z,3.7
2017-11-27T00:28:05.169Z,3.57
2017-11-27T00:29:14.311Z,3.57
2017-11-27T00:30:23.722Z,3.52
2017-11-27T00:31:32.566Z,3.52
2017-11-27T00:32:41.403Z,3.54
2017-11-27T00:33:50.547Z,3.58
2017-11-27T00:34:59.822Z,3.55
2017-11-27T00:36:08.664Z,3.52
2017-11-27T00:37:17.508Z,3.61
2017-11-27T00:38:26.356Z,3.57
2017-11-27T00:39:35.191Z,3.57
2017-11-27T00:40:44.180Z,3.5
2017-11-27T00:41:53.026Z,3.48
2017-11-27T00:43:01.866Z,3.45
2017-11-27T00:44:10.708Z,3.4
2017-11-27T00:45:19.549Z,3.39
2017-11-27T00:46:28.541Z,3.47
2017-11-27T00:47:37.384Z,3.33
2017-11-27T00:48:46.223Z,3.48
2017-11-27T00:49:55.063Z,3.43
2017-11-27T00:51:03.905Z,3.47
2017-11-27T00:52:12.895Z,3.47
2017-11-27T00:53:21.738Z,3.36
2017-11-27T00:54:30.581Z,3.39
2017-11-27T00:55:39.427Z,3.35
2017-11-27T00:56:48.261Z,3.33
2017-11-27T00:57:57.105Z,3.33
2017-11-27T00:59:05.945Z,3.31
2017-11-27T01:00:14.787Z,3.4
2017-11-27T01:01:23.627Z,3.39
2017-11-27T01:02:32.472Z,3.23
2017-11-27T01:03:41.321Z,3.33
2017-11-27T01:04:50.158Z,3.4
2017-11-27T01:05:59.007Z,3.18
2017-11-27T01:07:07.845Z,3.23
2017-11-27T01:08:16.967Z,3.29
2017-11-27T01:09:26.243Z,3.24
2017-11-27T01:10:35.076Z,3.21
2017-11-27T01:11:43.914Z,3.15
2017-11-27T01:12:53.031Z,3.15
2017-11-27T01:14:01.882Z,3.26
2017-11-27T01:15:11.320Z,3.17
2017-11-27T01:16:20.166Z,3.2
2017-11-27T01:17:29.008Z,3.13
2017-11-27T01:18:37.845Z,3.23
2017-11-27T01:19:46.684Z,3.23
2017-11-27T01:20:55.674Z,3.15
2017-11-27T01:22:04.513Z,3.23
2017-11-27T01:23:13.354Z,3.23
2017-11-27T01:24:22.195Z,3.23
2017-11-27T01:25:31.038Z,3.15
2017-11-27T01:26:40.315Z,3.18
2017-11-27T01:27:49.430Z,3.24
2017-11-27T01:28:58.271Z,3.21
2017-11-27T01:30:07.113Z,3.14
2017-11-27T01:31:15.957Z,3.06
2017-11-27T01:32:24.796Z,3.06
2017-11-27T01:33:33.637Z,3.08
2017-11-27T01:34:42.479Z,3.1
2017-11-27T01:35:51.598Z,3.05
2017-11-27T01:37:00.436Z,3.06
2017-11-27T01:38:09.376Z,3.06
2017-11-27T01:39:18.796Z,3.08
2017-11-27T01:40:27.637Z,3.06
2017-11-27T01:41:36.477Z,3
2017-11-27T01:42:45.319Z,3.05
2017-11-27T01:43:54.209Z,3.08
2017-11-27T01:45:03.051Z,3.06
2017-11-27T01:46:11.889Z,3.05
2017-11-27T01:47:20.728Z,2.95
2017-11-27T01:48:29.567Z,2.97
2017-11-27T01:49:38.706Z,3.1
2017-11-27T01:50:47.549Z,2.97
2017-11-27T01:51:56.389Z,2.99
2017-11-27T01:53:05.229Z,3.02
2017-11-27T01:54:14.070Z,3.03
2017-11-27T01:55:23.061Z,3
2017-11-27T01:56:31.903Z,2.95
2017-11-27T01:57:40.745Z,2.97
2017-11-27T01:58:49.588Z,2.95
2017-11-27T01:59:58.710Z,2.95
2017-11-27T02:01:07.600Z,2.96
2017-11-27T02:02:16.438Z,3.03
2017-11-27T02:03:25.281Z,2.99
2017-11-27T02:04:34.130Z,2.9
2017-11-27T02:05:42.988Z,2.96
2017-11-27T02:06:51.801Z,3
2017-11-27T02:08:00.639Z,3
2017-11-27T02:09:09.477Z,2.93
2017-11-27T02:10:18.316Z,3.03
2017-11-27T02:11:27.156Z,3.06
2017-11-27T02:12:36.346Z,3.05
2017-11-27T02:13:45.186Z,2.96
2017-11-27T02:14:54.027Z,2.97
2017-11-27T02:16:03.153Z,2.99
2017-11-27T02:17:12.270Z,2.95
2017-11-27T02:18:21.260Z,3.17
2017-11-27T02:19:30.100Z,2.96
2017-11-27T02:20:38.943Z,2.97
2017-11-27T02:21:48.061Z,3.03
2017-11-27T02:22:56.902Z,3.03
2017-11-27T02:24:06.040Z,3.03
2017-11-27T02:25:14.881Z,3.06
2017-11-27T02:26:23.720Z,3.1
2017-11-27T02:27:32.561Z,3.03
2017-11-27T02:28:41.402Z,3.03
2017-11-27T02:29:50.843Z,2.97
2017-11-27T02:30:59.684Z,3
2017-11-27T02:32:08.527Z,2.99
2017-11-27T02:33:17.368Z,3.08
2017-11-27T02:34:26.205Z,3.02
2017-11-27T02:35:35.637Z,3.1
2017-11-27T02:36:44.475Z,3.05
2017-11-27T02:37:53.320Z,3.05
2017-11-27T02:39:02.188Z,3.05
2017-11-27T02:40:10.999Z,3.1
2017-11-27T02:41:20.042Z,3.15
2017-11-27T02:42:28.882Z,3.11
2017-11-27T02:43:38.013Z,3.08
2017-11-27T02:44:46.852Z,3.06
2017-11-27T02:45:55.687Z,3.08
2017-11-27T02:47:04.528Z,3.08
2017-11-27T02:48:13.364Z,3.15
2017-11-27T02:49:22.206Z,3.1
2017-11-27T02:50:31.053Z,3.1
2017-11-27T02:51:39.897Z,3
2017-11-27T02:52:48.883Z,3.06
2017-11-27T02:53:57.723Z,3.11
2017-11-27T02:55:06.565Z,3.05
2017-11-27T02:56:15.407Z,3.08
2017-11-27T02:57:24.527Z,3.15
2017-11-27T02:58:33.368Z,3.13
2017-11-27T02:59:42.211Z,3.11
2017-11-27T03:00:51.609Z,3.14
2017-11-27T03:02:00.449Z,3.1
2017-11-27T03:03:09.574Z,3.05
2017-11-27T03:04:18.419Z,3.05
2017-11-27T03:05:27.255Z,3.11
2017-11-27T03:06:36.095Z,3.06
2017-11-27T03:07:44.939Z,3.08
2017-11-27T03:08:53.779Z,3.17
2017-11-27T03:10:02.621Z,3.13
2017-11-27T03:11:11.464Z,3.1
2017-11-27T03:12:20.585Z,3.14
2017-11-27T03:13:29.423Z,3.06
2017-11-27T03:14:38.261Z,3.03
2017-11-27T03:15:47.203Z,3.08
2017-11-27T03:16:56.043Z,3.11
2017-11-27T03:18:04.887Z,3.06
2017-11-27T03:19:13.727Z,3.1
2017-11-27T03:20:22.567Z,3.05
2017-11-27T03:21:31.562Z,3.13
2017-11-27T03:22:40.405Z,3.13
2017-11-27T03:23:49.246Z,3.13
2017-11-27T03:24:58.085Z,3.17
2017-11-27T03:26:07.238Z,3.1
2017-11-27T03:27:16.064Z,3.15
2017-11-27T03:28:24.901Z,3.17
2017-11-27T03:29:33.741Z,3.15
2017-11-27T03:30:42.586Z,3.17
2017-11-27T03:31:51.727Z,3.26
2017-11-27T03:33:00.858Z,3.28
2017-11-27T03:34:09.988Z,3.13
2017-11-27T03:35:18.828Z,3.28
2017-11-27T03:36:27.947Z,3.32
2017-11-27T03:37:36.790Z,3.31
2017-11-27T03:38:46.012Z,3.39
2017-11-27T03:39:54.856Z,3.35
2017-11-27T03:41:03.700Z,3.32
2017-11-27T03:42:12.542Z,3.57
2017-11-27T03:43:21.385Z,3.54
2017-11-27T03:44:30.525Z,3.57
2017-11-27T03:45:39.365Z,3.52
2017-11-27T03:46:48.205Z,3.58
2017-11-27T03:47:57.321Z,3.54
2017-11-27T03:49:06.163Z,3.57
2017-11-27T03:50:15.001Z,3.48
2017-11-27T03:51:23.844Z,3.58
2017-11-27T03:52:32.679Z,3.66
2017-11-27T03:53:41.520Z,3.54
2017-11-27T03:54:50.651Z,3.7
2017-11-27T03:55:59.742Z,3.69
2017-11-27T03:57:08.584Z,3.69
2017-11-27T03:58:17.703Z,3.72
2017-11-27T03:59:26.548Z,3.69
2017-11-27T04:00:35.389Z,3.7
2017-11-27T04:01:44.715Z,3.73
2017-11-27T04:02:53.550Z,3.68
2017-11-27T04:04:02.389Z,3.65
2017-11-27T04:05:11.511Z,3.73
2017-11-27T04:06:20.361Z,3.69
2017-11-27T04:07:29.625Z,3.84
2017-11-27T04:08:38.464Z,3.73
2017-11-27T04:09:47.308Z,3.79
2017-11-27T04:10:56.148Z,3.8
2017-11-27T04:12:04.989Z,3.84
2017-11-27T04:13:14.130Z,3.78
2017-11-27T04:14:23.261Z,3.84
2017-11-27T04:15:32.394Z,3.75
2017-11-27T04:16:41.233Z,3.9
2017-11-27T04:17:50.073Z,3.83
2017-11-27T04:18:59.345Z,3.91
2017-11-27T04:20:08.188Z,3.93
2017-11-27T04:21:17.027Z,3.76
2017-11-27T04:22:25.869Z,3.79
2017-11-27T04:23:34.709Z,3.78
2017-11-27T04:24:43.552Z,3.83
2017-11-27T04:25:52.394Z,3.9
2017-11-27T04:27:01.239Z,3.73
2017-11-27T04:28:10.078Z,3.75
2017-11-27T04:29:18.920Z,3.73
2017-11-27T04:30:27.924Z,3.86
2017-11-27T04:31:36.749Z,3.86
2017-11-27T04:32:45.591Z,3.84
2017-11-27T04:33:54.432Z,3.87
2017-11-27T04:35:03.276Z,3.79
2017-11-27T04:36:12.216Z,3.84
2017-11-27T04:37:21.057Z,3.83
2017-11-27T04:38:29.902Z,3.8
2017-11-27T04:39:38.742Z,3.97
2017-11-27T04:40:47.583Z,3.88
2017-11-27T04:41:56.753Z,3.8
2017-11-27T04:43:05.592Z,3.83
2017-11-27T04:44:14.440Z,3.97
2017-11-27T04:45:23.278Z,3.9
2017-11-27T04:46:32.112Z,3.91
2017-11-27T04:47:41.208Z,3.9
2017-11-27T04:48:50.050Z,3.91
2017-11-27T04:49:58.891Z,3.88
2017-11-27T04:51:07.738Z,3.96
2017-11-27T04:52:16.580Z,3.9
2017-11-27T04:53:25.799Z,3.88
2017-11-27T04:54:34.642Z,3.91
2017-11-27T04:55:43.767Z,3.9
2017-11-27T04:56:52.612Z,3.88
2017-11-27T04:58:01.450Z,3.96
2017-11-27T04:59:10.720Z,4
2017-11-27T05:00:19.843Z,3.97
2017-11-27T05:01:28.689Z,3.98
2017-11-27T05:02:37.812Z,4.04
2017-11-27T05:03:46.658Z,4
2017-11-27T05:04:55.881Z,4.06
2017-11-27T05:06:04.721Z,4.15
2017-11-27T05:07:13.591Z,4.06
2017-11-27T05:08:22.403Z,4.23
2017-11-27T05:09:31.242Z,4.09
2017-11-27T05:10:40.363Z,4.2
2017-11-27T05:11:49.203Z,4.18
2017-11-27T05:12:58.046Z,4.11
2017-11-27T05:14:06.886Z,4.22
2017-11-27T05:15:15.730Z,4.24
2017-11-27T05:16:24.822Z,4.22
2017-11-27T05:17:33.663Z,4.27
2017-11-27T05:18:42.508Z,4.27
2017-11-27T05:19:51.353Z,4.29
2017-11-27T05:21:00.193Z,4.33
2017-11-27T05:22:09.183Z,4.34
2017-11-27T05:23:18.021Z,4.32
2017-11-27T05:24:26.861Z,4.45
2017-11-27T05:25:35.703Z,4.32
2017-11-27T05:26:44.826Z,4.3
2017-11-27T05:27:53.767Z,4.33
2017-11-27T05:29:02.612Z,4.4
2017-11-27T05:30:11.455Z,4.36
2017-11-27T05:31:20.300Z,4.4
2017-11-27T05:32:29.141Z,4.4
2017-11-27T05:33:38.133Z,4.41
2017-11-27T05:34:46.972Z,4.48
2017-11-27T05:35:55.811Z,4.34
2017-11-27T05:37:04.651Z,4.37
2017-11-27T05:38:13.488Z,4.36
2017-11-27T05:39:22.527Z,4.44
2017-11-27T05:40:31.372Z,4.42
2017-11-27T05:41:40.502Z,4.42
2017-11-27T05:42:49.629Z,4.44
2017-11-27T05:43:58.752Z,4.44
2017-11-27T05:45:07.895Z,4.44
2017-11-27T05:46:16.733Z,4.36
2017-11-27T05:47:25.576Z,4.44
2017-11-27T05:48:34.420Z,4.48
2017-11-27T05:49:43.550Z,4.45
2017-11-27T05:50:52.692Z,4.4
2017-11-27T05:52:01.533Z,4.36
2017-11-27T05:53:10.377Z,4.48
2017-11-27T05:54:19.219Z,4.47
2017-11-27T05:55:28.062Z,4.45
2017-11-27T05:56:36.953Z,4.44
2017-11-27T05:57:45.796Z,4.44
2017-11-27T05:58:54.635Z,4.42
2017-11-27T06:00:03.763Z,4.59
2017-11-27T06:01:12.606Z,4.6
2017-11-27T06:02:21.445Z,4.58
2017-11-27T06:03:30.285Z,4.54
2017-11-27T06:04:39.125Z,4.69
2017-11-27T06:05:47.968Z,4.75
2017-11-27T06:06:56.892Z,4.66
2017-11-27T06:08:05.703Z,4.69
2017-11-27T06:09:14.797Z,4.69
2017-11-27T06:10:23.649Z,4.67
2017-11-27T06:11:32.514Z,4.69
2017-11-27T06:12:41.359Z,4.65
2017-11-27T06:13:50.200Z,4.69
2017-11-27T06:14:59.046Z,4.63
2017-11-27T06:16:07.889Z,4.63
2017-11-27T06:17:17.118Z,4.67
2017-11-27T06:18:25.957Z,4.7
2017-11-27T06:19:34.802Z,4.7
2017-11-27T06:20:43.656Z,4.72
2017-11-27T06:21:52.489Z,4.69
2017-11-27T06:23:01.334Z,4.67
2017-11-27T06:24:10.181Z,4.73
2017-11-27T06:25:19.016Z,4.73
2017-11-27T06:26:27.864Z,4.72
2017-11-27T06:27:37.058Z,4.72
2017-11-27T06:28:45.908Z,4.73
2017-11-27T06:29:54.760Z,4.67
2017-11-27T06:31:03.603Z,4.75
2017-11-27T06:32:12.449Z,4.69
2017-11-27T06:33:21.546Z,4.72
2017-11-27T06:34:30.391Z,4.7
2017-11-27T06:35:39.550Z,4.8
2017-11-27T06:36:48.395Z,4.77
2017-11-27T06:37:57.231Z,4.8
2017-11-27T06:39:06.123Z,4.75
2017-11-27T06:40:14.964Z,4.77
2017-11-27T06:41:23.809Z,4.82
2017-11-27T06:42:32.663Z,4.72
2017-11-27T06:43:41.789Z,4.75
2017-11-27T06:44:50.786Z,4.73
2017-11-27T06:45:59.635Z,4.75
2017-11-27T06:47:08.762Z,4.75
2017-11-27T06:48:17.617Z,4.8
2017-11-27T06:49:26.460Z,4.69
2017-11-27T06:50:35.411Z,4.7
2017-11-27T06:51:44.254Z,4.72
2017-11-27T06:52:53.382Z,4.73
2017-11-27T06:54:02.225Z,4.75
2017-11-27T06:55:11.068Z,4.7
2017-11-27T06:56:20.311Z,4.77
2017-11-27T06:57:29.151Z,4.72
2017-11-27T06:58:38.273Z,4.78
2017-11-27T06:59:47.121Z,4.75
2017-11-27T07:00:56.250Z,4.84
2017-11-27T07:02:05.108Z,4.84
2017-11-27T07:03:13.949Z,4.86
2017-11-27T07:04:22.797Z,4.8
2017-11-27T07:05:31.642Z,4.82
2017-11-27T07:06:40.766Z,4.84
2017-11-27T07:07:49.892Z,4.89
2017-11-27T07:08:58.733Z,4.82
2017-11-27T07:10:07.576Z,4.89
2017-11-27T07:11:16.423Z,4.96
2017-11-27T07:12:25.268Z,4.94
2017-11-27T07:13:34.110Z,4.92
2017-11-27T07:14:43.237Z,4.91
2017-11-27T07:15:52.381Z,4.84
2017-11-27T07:17:01.224Z,4.88
2017-11-27T07:18:10.069Z,4.94
2017-11-27T07:19:19.162Z,4.97
2017-11-27T07:20:28.007Z,4.91
2017-11-27T07:21:37.244Z,4.96
2017-11-27T07:22:46.365Z,4.88
2017-11-27T07:23:55.207Z,4.97
2017-11-27T07:25:04.100Z,4.92
2017-11-27T07:26:12.942Z,4.89
2017-11-27T07:27:21.789Z,5
2017-11-27T07:28:30.636Z,4.92
2017-11-27T07:29:39.759Z,4.96
2017-11-27T07:30:48.654Z,4.94
2017-11-27T07:31:57.499Z,4.97
2017-11-27T07:33:06.344Z,5.07
2017-11-27T07:34:15.186Z,5.07
2017-11-27T07:35:24.308Z,5.04
2017-11-27T07:36:33.156Z,4.96
2017-11-27T07:37:42.277Z,4.97
2017-11-27T07:38:51.123Z,5
2017-11-27T07:39:59.966Z,5
2017-11-27T07:41:08.814Z,5.02
2017-11-27T07:42:17.763Z,4.97
2017-11-27T07:43:26.888Z,5
2017-11-27T07:44:35.735Z,5.12
2017-11-27T07:45:44.617Z,5.06
2017-11-27T07:46:53.421Z,5.12
2017-11-27T07:48:02.565Z,5.07
2017-11-27T07:49:11.412Z,5.09
2017-11-27T07:50:20.548Z,5.07
2017-11-27T07:51:29.392Z,5.07
2017-11-27T07:52:38.234Z,5.04
2017-11-27T07:53:47.509Z,5.03
2017-11-27T07:54:56.353Z,5.1
2017-11-27T07:56:05.193Z,5.06
2017-11-27T07:57:14.034Z,5.12
2017-11-27T07:58:22.879Z,5.18
2017-11-27T07:59:32.318Z,5.18
2017-11-27T08:00:41.160Z,5.17
2017-11-27T08:01:50.015Z,5.13
2017-11-27T08:02:59.144Z,5.25
2017-11-27T08:04:08.268Z,5.2
2017-11-27T08:05:17.110Z,5.24
2017-11-27T08:06:25.952Z,5.22
2017-11-27T08:07:34.796Z,5.22
2017-11-27T08:08:43.636Z,5.21
2017-11-27T08:09:52.760Z,5.28
2017-11-27T08:11:01.763Z,5.24
2017-11-27T08:12:10.602Z,5.22
2017-11-27T08:13:19.447Z,5.24
2017-11-27T08:14:28.291Z,5.2
2017-11-27T08:15:37.137Z,5.2
2017-11-27T08:16:46.136Z,5.27
2017-11-27T08:17:55.259Z,5.24
2017-11-27T08:19:04.104Z,5.25
2017-11-27T08:20:12.947Z,5.28
2017-11-27T08:21:21.791Z,5.21
2017-11-27T08:22:30.785Z,5.25
2017-11-27T08:23:39.629Z,5.22
2017-11-27T08:24:48.477Z,5.17
2017-11-27T08:25:57.320Z,5.2
2017-11-27T08:27:06.448Z,5.1
2017-11-27T08:28:15.495Z,5.21
2017-11-27T08:29:24.623Z,5.2
2017-11-27T08:30:33.469Z,5.13
2017-11-27T08:31:42.311Z,5.2
2017-11-27T08:32:51.442Z,5.2
2017-11-27T08:34:00.636Z,5.18
2017-11-27T08:35:09.763Z,5.13
2017-11-27T08:36:18.886Z,5.07
2017-11-27T08:37:27.728Z,5.13
2017-11-27T08:38:36.571Z,5.13
2017-11-27T08:39:45.803Z,5.17
2017-11-27T08:40:54.649Z,5.17
2017-11-27T08:42:03.491Z,5.09
2017-11-27T08:43:12.333Z,5.2
2017-11-27T08:44:21.178Z,5.15
2017-11-27T08:45:30.224Z,5.12
2017-11-27T08:46:39.066Z,5.15
2017-11-27T08:47:48.188Z,5.03
2017-11-27T08:48:57.033Z,5.06
2017-11-27T08:50:06.167Z,5.15
2017-11-27T08:51:15.062Z,5.04
2017-11-27T08:52:23.902Z,5.04
2017-11-27T08:53:32.777Z,5.15
2017-11-27T08:54:41.586Z,5.09
2017-11-27T08:55:50.431Z,5.02
2017-11-27T08:56:59.376Z,5.06
2017-11-27T08:58:08.219Z,5.02
2017-11-27T08:59:17.066Z,5.09
2017-11-27T09:00:25.910Z,5.04
2017-11-27T09:01:34.758Z,5.06
2017-11-27T09:02:43.648Z,5.07
2017-11-27T09:03:52.488Z,5.15
2017-11-27T09:05:01.337Z,4.96
2017-11-27T09:06:10.178Z,5
2017-11-27T09:07:19.018Z,5.02
2017-11-27T09:08:28.063Z,5.04
2017-11-27T09:09:36.906Z,4.92
2017-11-27T09:10:46.040Z,5.04
2017-11-27T09:11:54.933Z,5.02
2017-11-27T09:13:03.779Z,4.96
2017-11-27T09:14:13.263Z,5.07
2017-11-27T09:15:22.107Z,4.99
2017-11-27T09:16:30.947Z,4.94
2017-11-27T09:17:39.791Z,4.85
2017-11-27T09:18:48.632Z,5.04
2017-11-27T09:19:57.855Z,5
2017-11-27T09:21:06.981Z,4.99
2017-11-27T09:22:15.826Z,4.91
2017-11-27T09:23:24.668Z,4.96
2017-11-27T09:24:33.510Z,4.91
2017-11-27T09:25:42.452Z,4.96
2017-11-27T09:26:51.297Z,4.99
2017-11-27T09:28:00.419Z,4.96
2017-11-27T09:29:09.266Z,4.99
2017-11-27T09:30:18.391Z,4.99
2017-11-27T09:31:27.382Z,4.94
2017-11-27T09:32:36.232Z,4.91
2017-11-27T09:33:45.353Z,5
2017-11-27T09:34:54.195Z,5.04
2017-11-27T09:36:03.036Z,4.96
2017-11-27T09:37:11.979Z,4.96
2017-11-27T09:38:21.109Z,4.99
2017-11-27T09:39:29.955Z,5
2017-11-27T09:40:38.801Z,5
2017-11-27T09:41:47.644Z,5
2017-11-27T09:42:56.691Z,5
2017-11-27T09:44:05.541Z,4.97
2017-11-27T09:45:14.376Z,4.97
2017-11-27T09:46:23.216Z,4.96
2017-11-27T09:47:32.338Z,4.96
2017-11-27T09:48:41.232Z,4.86
2017-11-27T09:49:50.082Z,4.94
2017-11-27T09:50:58.917Z,4.91
2017-11-27T09:52:07.760Z,4.92
2017-11-27T09:53:16.605Z,4.99
2017-11-27T09:54:25.830Z,4.92
2017-11-27T09:55:34.674Z,5
2017-11-27T09:56:43.520Z,4.97
2017-11-27T09:57:52.364Z,5.02
2017-11-27T09:59:01.205Z,5.06
2017-11-27T10:00:10.251Z,4.99
2017-11-27T10:01:19.095Z,5.03
2017-11-27T10:02:27.944Z,4.92
2017-11-27T10:03:36.780Z,5.04
2017-11-27T10:04:45.626Z,4.97
2017-11-27T10:05:54.829Z,4.92
2017-11-27T10:07:03.664Z,4.97
2017-11-27T10:08:12.506Z,4.97
2017-11-27T10:09:21.346Z,5.09
2017-11-27T10:10:30.190Z,4.97
2017-11-27T10:11:39.181Z,5
2017-11-27T10:12:48.022Z,4.99
2017-11-27T10:13:56.878Z,5
2017-11-27T10:15:05.710Z,4.96
2017-11-27T10:16:14.553Z,5
2017-11-27T10:17:23.604Z,5.07
2017-11-27T10:18:32.444Z,4.96
2017-11-27T10:19:41.289Z,5.09
2017-11-27T10:20:50.134Z,5.02
2017-11-27T10:21:58.977Z,5.06
2017-11-27T10:23:08.298Z,4.99
2017-11-27T10:24:17.146Z,5.02
2017-11-27T10:25:25.983Z,4.92
2017-11-27T10:26:34.828Z,5
2017-11-27T10:27:43.769Z,5.03
2017-11-27T10:28:52.718Z,5.09
2017-11-27T10:30:01.556Z,5.02
2017-11-27T10:31:10.682Z,5.04
2017-11-27T10:32:19.529Z,5.12
2017-11-27T10:33:28.365Z,5.06
2017-11-27T10:34:37.358Z,5.09
2017-11-27T10:35:46.202Z,5.1
2017-11-27T10:36:55.047Z,5.1
2017-11-27T10:38:03.891Z,5.17
2017-11-27T10:39:12.735Z,5.07
2017-11-27T10:40:21.829Z,5.07
2017-11-27T10:41:30.671Z,5.17
2017-11-27T10:42:39.516Z,5.13
2017-11-27T10:43:48.360Z,5.15
2017-11-27T10:44:57.487Z,5.07
2017-11-27T10:46:06.480Z,5.35
2017-11-27T10:47:15.325Z,5.2
2017-11-27T10:48:24.171Z,5.2
2017-11-27T10:49:33.013Z,5.17
2017-11-27T10:50:41.860Z,5.18
2017-11-27T10:51:50.705Z,5.13
2017-11-27T10:52:59.547Z,5.1
2017-11-27T10:54:08.390Z,5.13
2017-11-27T10:55:17.234Z,5.22
2017-11-27T10:56:26.355Z,5.21
2017-11-27T10:57:35.351Z,5.21
2017-11-27T10:58:44.197Z,5.3
2017-11-27T10:59:53.609Z,5.3
2017-11-27T11:01:02.451Z,5.21
2017-11-27T11:02:11.575Z,5.27
2017-11-27T11:03:20.619Z,5.27
2017-11-27T11:04:29.461Z,5.25
2017-11-27T11:05:38.307Z,5.21
2017-11-27T11:06:47.148Z,5.3
2017-11-27T11:07:55.994Z,5.27
2017-11-27T11:09:05.520Z,5.25
2017-11-27T11:10:14.363Z,5.31
2017-11-27T11:11:23.208Z,5.35
2017-11-27T11:12:32.330Z,5.31
2017-11-27T11:13:41.173Z,5.36
2017-11-27T11:14:50.129Z,5.43
2017-11-27T11:15:58.964Z,5.39
2017-11-27T11:17:07.802Z,5.42
2017-11-27T11:18:16.648Z,5.38
2017-11-27T11:19:25.486Z,5.31
2017-11-27T11:20:34.332Z,5.39
2017-11-27T11:21:43.177Z,5.35
2017-11-27T11:22:52.019Z,5.33
2017-11-27T11:24:00.864Z,5.31
2017-11-27T11:25:09.707Z,5.42
2017-11-27T11:26:18.701Z,5.46
2017-11-27T11:27:27.543Z,5.4
2017-11-27T11:28:36.406Z,5.39
2017-11-27T11:29:45.229Z,5.39
2017-11-27T11:30:54.071Z,5.42
2017-11-27T11:32:03.066Z,5.4
2017-11-27T11:33:11.903Z,5.39
2017-11-27T11:34:20.748Z,5.45
2017-11-27T11:35:29.595Z,5.42
2017-11-27T11:36:38.723Z,5.4
2017-11-27T11:37:47.717Z,5.53
2017-11-27T11:38:56.563Z,5.51
2017-11-27T11:40:05.689Z,5.4
2017-11-27T11:41:14.815Z,5.46
2017-11-27T11:42:23.657Z,5.49
2017-11-27T11:43:32.598Z,5.51
2017-11-27T11:44:41.442Z,5.48
2017-11-27T11:45:50.287Z,5.49
2017-11-27T11:46:59.127Z,5.46
2017-11-27T11:48:07.969Z,5.51
2017-11-27T11:49:17.111Z,5.48
2017-11-27T11:50:25.953Z,5.49
2017-11-27T11:51:34.796Z,5.49
2017-11-27T11:52:43.641Z,5.6
2017-11-27T11:53:52.483Z,5.54
2017-11-27T11:55:01.327Z,5.57
2017-11-27T11:56:10.469Z,5.53
2017-11-27T11:57:19.311Z,5.46
2017-11-27T11:58:28.438Z,5.54
2017-11-27T11:59:37.275Z,5.61
2017-11-27T12:00:46.275Z,5.61
2017-11-27T12:01:55.413Z,5.65
2017-11-27T12:03:04.255Z,5.58
2017-11-27T12:04:13.098Z,5.6
2017-11-27T12:05:21.942Z,5.53
2017-11-27T12:06:30.886Z,5.63
2017-11-27T12:07:39.730Z,5.58
2017-11-27T12:08:48.575Z,5.64
2017-11-27T12:09:57.709Z,5.65
2017-11-27T12:11:06.554Z,5.61
2017-11-27T12:12:15.550Z,5.63
2017-11-27T12:13:24.387Z,5.65
2017-11-27T12:14:33.233Z,5.64
2017-11-27T12:15:42.078Z,5.63
2017-11-27T12:16:51.198Z,5.67
2017-11-27T12:18:00.089Z,5.64
2017-11-27T12:19:08.936Z,5.61
2017-11-27T12:20:17.784Z,5.78
2017-11-27T12:21:26.628Z,5.72
2017-11-27T12:22:35.471Z,5.78
2017-11-27T12:23:44.413Z,5.63
2017-11-27T12:24:53.257Z,5.67
2017-11-27T12:26:02.101Z,5.67
2017-11-27T12:27:11.221Z,5.71
2017-11-27T12:28:20.064Z,5.71
2017-11-27T12:29:28.904Z,5.78
2017-11-27T12:30:37.747Z,5.79
2017-11-27T12:31:46.598Z,5.71
2017-11-27T12:32:55.436Z,5.71
2017-11-27T12:34:04.560Z,5.74
2017-11-27T12:35:13.403Z,5.75
2017-11-27T12:36:22.250Z,5.78
2017-11-27T12:37:31.090Z,5.82
2017-11-27T12:38:39.935Z,5.78
2017-11-27T12:39:48.783Z,5.74
2017-11-27T12:40:57.624Z,5.78
2017-11-27T12:42:06.469Z,5.85
2017-11-27T12:43:15.311Z,5.85
2017-11-27T12:44:24.155Z,5.85
2017-11-27T12:45:33.276Z,5.85
2017-11-27T12:46:42.216Z,5.81
2017-11-27T12:47:51.061Z,5.76
2017-11-27T12:48:59.905Z,5.9
2017-11-27T12:50:08.748Z,5.9
2017-11-27T12:51:17.595Z,5.93
2017-11-27T12:52:26.539Z,5.96
2017-11-27T12:53:35.383Z,5.91
2017-11-27T12:54:44.243Z,5.9
2017-11-27T12:55:53.071Z,6
2017-11-27T12:57:01.916Z,5.91
2017-11-27T12:58:10.756Z,6.04
2017-11-27T12:59:19.599Z,6
2017-11-27T13:00:28.728Z,6
2017-11-27T13:01:37.602Z,5.96
2017-11-27T13:02:46.729Z,5.97
2017-11-27T13:03:56.001Z,6.04
2017-11-27T13:05:04.846Z,5.96
2017-11-27T13:06:13.927Z,5.9
2017-11-27T13:07:23.073Z,6.03
2017-11-27T13:08:31.956Z,6.04
2017-11-27T13:09:40.909Z,6.04
2017-11-27T13:10:49.762Z,6.09
2017-11-27T13:11:58.611Z,6.01
2017-11-27T13:13:07.486Z,6.01
2017-11-27T13:14:16.350Z,6.06
2017-11-27T13:15:25.531Z,5.99
2017-11-27T13:16:34.689Z,6.06
2017-11-27T13:17:43.586Z,6.03
2017-11-27T13:18:52.746Z,6.18
2017-11-27T13:20:01.914Z,6.17
2017-11-27T13:21:11.104Z,6.09
2017-11-27T13:22:19.945Z,6.14
2017-11-27T13:23:29.091Z,6.14
2017-11-27T13:24:38.294Z,6.15
2017-11-27T13:25:47.146Z,6.12
2017-11-27T13:26:55.992Z,6.09
2017-11-27T13:28:04.961Z,6.21
2017-11-27T13:29:14.437Z,6.04
2017-11-27T13:30:23.631Z,6.09
2017-11-27T13:31:32.731Z,6.22
2017-11-27T13:32:41.599Z,6.12
2017-11-27T13:33:50.701Z,6.21
2017-11-27T13:34:59.898Z,6.21
2017-11-27T13:36:09.376Z,6.18
2017-11-27T13:37:18.720Z,6.18
2017-11-27T13:38:27.655Z,6.19
2017-11-27T13:39:36.788Z,6.33
2017-11-27T13:40:45.643Z,6.25
2017-11-27T13:41:54.515Z,6.33
2017-11-27T13:43:03.959Z,6.28
2017-11-27T13:44:13.153Z,6.28
2017-11-27T13:45:22.231Z,6.34
2017-11-27T13:46:31.079Z,6.11
2017-11-27T13:47:39.938Z,6.22
2017-11-27T13:48:48.829Z,6.21
2017-11-27T13:49:57.975Z,6.3
2017-11-27T13:51:07.186Z,6.3
2017-11-27T13:52:16.373Z,6.3
2017-11-27T13:53:25.224Z,6.3
2017-11-27T13:54:34.120Z,6.3
2017-11-27T13:55:43.142Z,6.22
2017-11-27T13:56:52.272Z,6.31
2017-11-27T13:58:01.396Z,6.31
2017-11-27T13:59:10.262Z,6.43
2017-11-27T14:00:19.690Z,6.37
2017-11-27T14:01:29.301Z,6.41
2017-11-27T14:02:38.826Z,6.4
2017-11-27T14:03:48.032Z,6.38
2017-11-27T14:04:57.185Z,6.43
2017-11-27T14:06:06.039Z,6.4
2017-11-27T14:07:15.525Z,6.36
2017-11-27T14:08:24.671Z,6.44
2017-11-27T14:09:33.623Z,6.4
2017-11-27T14:10:42.863Z,6.34
2017-11-27T14:11:52.230Z,6.38
2017-11-27T14:13:01.225Z,6.37
2017-11-27T14:14:10.393Z,6.36
2017-11-27T14:15:19.246Z,6.43
2017-11-27T14:16:28.201Z,6.43
2017-11-27T14:17:37.075Z,6.38
2017-11-27T14:18:46.182Z,6.49
2017-11-27T14:19:55.062Z,6.48
2017-11-27T14:21:03.991Z,6.55
2017-11-27T14:22:13.327Z,6.55
2017-11-27T14:23:22.186Z,6.54
2017-11-27T14:24:32.317Z,6.51
2017-11-27T14:25:41.179Z,6.49
2017-11-27T14:26:50.065Z,6.51
2017-11-27T14:27:59.165Z,6.51
2017-11-27T14:29:09.027Z,6.54
2017-11-27T14:30:18.149Z,6.52
2017-11-27T14:31:27.139Z,6.52
2017-11-27T14:32:35.996Z,6.48
2017-11-27T14:33:44.858Z,6.51
2017-11-27T14:34:53.701Z,6.52
2017-11-27T14:36:02.825Z,6.64
2017-11-27T14:37:11.775Z,6.52
2017-11-27T14:38:20.867Z,6.52
2017-11-27T14:39:30.059Z,6.64
2017-11-27T14:40:38.936Z,6.62
2017-11-27T14:41:48.015Z,6.58
2017-11-27T14:42:56.862Z,6.61
2017-11-27T14:44:05.933Z,6.56
2017-11-27T14:45:14.780Z,6.56
2017-11-27T14:46:23.939Z,6.61
2017-11-27T14:47:32.878Z,6.67
2017-11-27T14:48:41.722Z,6.64
2017-11-27T14:49:51.134Z,6.61
2017-11-27T14:50:59.979Z,6.59
2017-11-27T14:52:08.824Z,6.69
2017-11-27T14:53:17.768Z,6.74
2017-11-27T14:54:26.612Z,6.71
2017-11-27T14:55:35.458Z,6.59
2017-11-27T14:56:44.303Z,6.87
2017-11-27T14:57:53.705Z,6.7
2017-11-27T14:59:02.751Z,6.77
2017-11-27T15:00:11.591Z,6.64
2017-11-27T15:01:20.442Z,6.73
2017-11-27T15:02:29.283Z,6.64
2017-11-27T15:03:38.127Z,6.77
2017-11-27T15:04:46.975Z,6.76
2017-11-27T15:05:56.099Z,6.81
2017-11-27T15:07:04.963Z,6.74
2017-11-27T15:08:13.817Z,6.77
2017-11-27T15:09:22.657Z,6.85
2017-11-27T15:10:31.501Z,6.77
2017-11-27T15:11:40.682Z,6.77
2017-11-27T15:12:49.612Z,6.76
2017-11-27T15:13:58.855Z,6.81
2017-11-27T15:15:07.802Z,6.76
2017-11-27T15:16:16.711Z,6.79
2017-11-27T15:17:26.133Z,6.74
2017-11-27T15:18:35.605Z,6.87
2017-11-27T15:19:44.481Z,6.79
2017-11-27T15:20:53.339Z,6.87
2017-11-27T15:22:02.197Z,6.84
2017-11-27T15:23:11.335Z,6.77